Terminal Aerodrome Forecast
Issued by NWS

Home | Current Version | Previous Version | Text Only | Print | Product List | Glossary On
Versions: 1 2 3 4 5 6 7 8 9 10 11 12 13 14 15
000
FTUS41 KPHI 281727
TAFPNE
TAF
KPNE 281727Z 2818/0118 31004KT P6SM SCT250
     FM010700 VRB02KT P6SM OVC120
     FM011400 12005KT P6SM OVC050
     FM011700 14004KT 6SM -SN OVC030=

USA.gov is the U.S. government's official web portal to all federal, state and local government web resources and services.